createdAt,value
2023-05-21T00:00:53.796Z,6.53
2023-05-21T00:03:21.134Z,5.60
2023-05-21T00:05:50.103Z,6.00
2023-05-21T00:08:19.181Z,5.90
2023-05-21T00:10:46.080Z,5.53
2023-05-21T00:13:12.881Z,5.50
2023-05-21T00:15:42.460Z,5.68
2023-05-21T00:18:11.939Z,6.35
2023-05-21T00:20:38.898Z,5.90
2023-05-21T00:23:05.662Z,6.00
2023-05-21T00:25:32.409Z,6.18
2023-05-21T00:27:59.153Z,6.32
2023-05-21T00:30:25.887Z,6.40
2023-05-21T00:32:53.013Z,6.25
2023-05-21T00:35:19.901Z,5.78
2023-05-21T00:37:48.967Z,6.05
2023-05-21T00:40:16.283Z,5.93
2023-05-21T00:42:46.507Z,6.07
2023-05-21T00:45:17.021Z,6.40
2023-05-21T00:47:44.513Z,6.28
2023-05-21T00:50:12.363Z,6.00
2023-05-21T00:52:41.975Z,6.05
2023-05-21T00:55:10.085Z,5.97
2023-05-21T00:57:39.532Z,5.95
2023-05-21T01:00:10.635Z,6.13
2023-05-21T01:02:39.733Z,6.13
2023-05-21T01:05:07.170Z,6.07
2023-05-21T01:07:35.696Z,7.47
2023-05-21T01:10:08.266Z,6.90
2023-05-21T01:12:35.795Z,6.70
2023-05-21T01:15:04.160Z,5.82
2023-05-21T01:17:34.308Z,6.60
2023-05-21T01:20:02.126Z,6.30
2023-05-21T01:22:33.979Z,6.63
2023-05-21T01:25:02.777Z,7.00
2023-05-21T01:27:29.748Z,5.83
2023-05-21T01:29:59.325Z,6.18
2023-05-21T01:32:41.751Z,6.22
2023-05-21T01:35:10.315Z,6.72
2023-05-21T01:37:52.188Z,6.30
2023-05-21T01:40:27.508Z,6.55
2023-05-21T01:42:54.443Z,6.15
2023-05-21T01:45:23.920Z,6.40
2023-05-21T01:47:55.196Z,6.10
2023-05-21T01:50:24.649Z,6.40
2023-05-21T01:53:00.992Z,6.70
2023-05-21T01:55:28.254Z,7.22
2023-05-21T01:57:55.882Z,6.50
2023-05-21T02:00:23.960Z,6.70
2023-05-21T02:02:51.770Z,6.38
2023-05-21T02:05:18.814Z,6.60
2023-05-21T02:07:47.394Z,6.07
2023-05-21T02:10:14.295Z,5.72
2023-05-21T02:12:41.028Z,7.05
2023-05-21T02:15:07.960Z,6.72
2023-05-21T02:17:35.354Z,6.88
2023-05-21T02:20:11.534Z,7.00
2023-05-21T02:22:40.001Z,6.60
2023-05-21T02:25:12.173Z,7.10
2023-05-21T02:27:40.645Z,7.40
2023-05-21T02:30:11.381Z,7.57
2023-05-21T02:32:42.621Z,7.03
2023-05-21T02:35:11.763Z,6.95
2023-05-21T02:37:40.448Z,7.10
2023-05-21T02:40:08.186Z,7.13
2023-05-21T02:42:36.551Z,7.32
2023-05-21T02:45:03.480Z,7.32
2023-05-21T02:47:32.683Z,7.30
2023-05-21T02:50:02.100Z,6.68
2023-05-21T02:52:31.402Z,7.10
2023-05-21T02:54:58.137Z,7.20
2023-05-21T02:57:27.341Z,7.03
2023-05-21T02:59:56.637Z,7.28
2023-05-21T03:02:26.035Z,6.53
2023-05-21T03:04:57.238Z,6.30
2023-05-21T03:07:24.374Z,6.38
2023-05-21T03:09:51.199Z,7.25
2023-05-21T03:12:17.915Z,6.53
2023-05-21T03:14:46.443Z,6.45
2023-05-21T03:17:17.030Z,6.35
2023-05-21T03:19:44.736Z,6.70
2023-05-21T03:22:11.606Z,6.38
2023-05-21T03:24:39.393Z,6.60
2023-05-21T03:27:07.054Z,6.45
2023-05-21T03:29:34.768Z,6.30
2023-05-21T03:32:02.176Z,6.65
2023-05-21T03:34:28.982Z,6.55
2023-05-21T03:36:58.185Z,6.50
2023-05-21T03:39:24.937Z,6.28
2023-05-21T03:41:51.667Z,6.55
2023-05-21T03:44:18.411Z,6.75
2023-05-21T03:46:45.634Z,6.68
2023-05-21T03:49:12.406Z,7.13
2023-05-21T03:51:41.564Z,6.00
2023-05-21T03:54:08.295Z,6.55
2023-05-21T03:56:35.009Z,6.97
2023-05-21T03:59:01.756Z,6.00
2023-05-21T04:01:30.753Z,6.63
2023-05-21T04:03:59.928Z,6.60
2023-05-21T04:06:26.760Z,6.95
2023-05-21T04:08:53.609Z,5.63
2023-05-21T04:11:20.887Z,6.75
2023-05-21T04:13:49.775Z,7.65
2023-05-21T04:16:19.265Z,6.32
2023-05-21T04:18:46.866Z,6.78
2023-05-21T04:21:16.296Z,6.57
2023-05-21T04:23:43.146Z,6.32
2023-05-21T04:26:09.871Z,6.95
2023-05-21T04:28:42.059Z,6.80
2023-05-21T04:31:08.899Z,7.38
2023-05-21T04:33:35.857Z,7.07
2023-05-21T04:36:03.891Z,7.05
2023-05-21T04:38:30.757Z,6.93
2023-05-21T04:40:58.749Z,6.57
2023-05-21T04:43:26.565Z,7.32
2023-05-21T04:45:54.870Z,6.35
2023-05-21T04:48:26.687Z,6.88
2023-05-21T04:50:56.760Z,6.63
2023-05-21T04:53:23.950Z,6.78
2023-05-21T04:55:52.845Z,6.53
2023-05-21T04:58:19.600Z,6.73
2023-05-21T05:00:47.012Z,6.45
2023-05-21T05:03:14.595Z,6.50
2023-05-21T05:05:41.900Z,6.70
2023-05-21T05:08:12.252Z,6.88
2023-05-21T05:10:40.621Z,6.47
2023-05-21T05:13:09.820Z,6.85
2023-05-21T05:15:36.828Z,6.72
2023-05-21T05:18:03.860Z,7.63
2023-05-21T05:20:32.953Z,7.88
2023-05-21T05:22:59.781Z,7.13
2023-05-21T05:25:26.829Z,7.43
2023-05-21T05:27:53.568Z,6.53
2023-05-21T05:30:21.022Z,6.72
2023-05-21T05:32:47.815Z,6.65
2023-05-21T05:35:14.603Z,7.68
2023-05-21T05:37:41.461Z,7.30
2023-05-21T05:40:13.321Z,7.28
2023-05-21T05:42:42.567Z,7.65
2023-05-21T05:45:14.489Z,7.47
2023-05-21T05:47:41.644Z,8.10
2023-05-21T05:50:10.988Z,7.85
2023-05-21T05:52:37.902Z,7.32
2023-05-21T05:55:05.279Z,7.57
2023-05-21T05:57:31.980Z,7.13
2023-05-21T05:59:58.754Z,8.00
2023-05-21T06:02:27.913Z,8.48
2023-05-21T06:04:54.809Z,7.65
2023-05-21T06:07:21.566Z,8.50
2023-05-21T06:09:48.272Z,7.78
2023-05-21T06:12:17.528Z,7.90
2023-05-21T06:14:46.024Z,7.93
2023-05-21T06:17:12.856Z,7.80
2023-05-21T06:19:45.203Z,7.60
2023-05-21T06:22:11.923Z,7.50
2023-05-21T06:24:41.156Z,7.15
2023-05-21T06:27:12.798Z,7.43
2023-05-21T06:29:40.815Z,8.15
2023-05-21T06:32:08.795Z,8.75
2023-05-21T06:34:35.568Z,7.85
2023-05-21T06:37:02.328Z,7.30
2023-05-21T06:39:29.145Z,7.85
2023-05-21T06:41:55.918Z,7.63
2023-05-21T06:44:23.012Z,8.13
2023-05-21T06:46:49.741Z,6.97
2023-05-21T06:49:16.578Z,7.47
2023-05-21T06:51:45.598Z,7.80
2023-05-21T06:54:12.371Z,7.57
2023-05-21T06:56:39.142Z,8.18
2023-05-21T06:59:06.023Z,7.97
2023-05-21T07:01:34.377Z,7.18
2023-05-21T07:04:01.217Z,7.95
2023-05-21T07:06:30.387Z,8.50
2023-05-21T07:08:57.195Z,8.15
2023-05-21T07:11:28.641Z,8.02
2023-05-21T07:13:58.204Z,7.30
2023-05-21T07:16:24.905Z,6.93
2023-05-21T07:18:51.761Z,6.93
2023-05-21T07:21:18.524Z,8.45
2023-05-21T07:23:47.688Z,7.50
2023-05-21T07:26:14.482Z,8.48
2023-05-21T07:28:45.791Z,7.80
2023-05-21T07:31:13.122Z,8.50
2023-05-21T07:33:39.973Z,8.30
2023-05-21T07:36:08.969Z,7.05
2023-05-21T07:38:38.062Z,8.32
2023-05-21T07:41:04.864Z,7.65
2023-05-21T07:43:31.950Z,8.38
2023-05-21T07:45:58.751Z,8.10
2023-05-21T07:48:26.927Z,6.78
2023-05-21T07:50:53.736Z,6.45
2023-05-21T07:53:20.694Z,7.82
2023-05-21T07:55:49.664Z,8.02
2023-05-21T07:58:23.408Z,7.50
2023-05-21T08:00:51.066Z,8.23
2023-05-21T08:03:22.908Z,8.43
2023-05-21T08:05:50.622Z,8.15
2023-05-21T08:08:18.843Z,8.07
2023-05-21T08:10:46.399Z,6.75
2023-05-21T08:13:19.288Z,8.50
2023-05-21T08:15:46.145Z,7.93
2023-05-21T08:18:12.898Z,7.95
2023-05-21T08:20:39.806Z,7.55
2023-05-21T08:23:08.754Z,7.03
2023-05-21T08:25:38.182Z,7.22
2023-05-21T08:30:31.878Z,7.47
2023-05-21T08:32:58.842Z,7.95
2023-05-21T08:35:25.678Z,9.30
2023-05-21T08:37:52.422Z,8.77
2023-05-21T08:40:19.257Z,8.77
2023-05-21T08:42:50.249Z,8.27
2023-05-21T08:45:23.770Z,8.77
2023-05-21T08:47:57.042Z,8.48
2023-05-21T08:50:27.430Z,9.00
2023-05-21T08:52:58.771Z,8.85
2023-05-21T08:55:28.817Z,8.93
2023-05-21T08:57:55.700Z,9.15
2023-05-21T09:00:22.760Z,9.23
2023-05-21T09:02:51.083Z,7.65
2023-05-21T09:05:18.274Z,9.07
2023-05-21T09:08:00.964Z,10.15
2023-05-21T09:10:38.057Z,9.38
2023-05-21T09:13:05.527Z,9.57
2023-05-21T09:15:32.826Z,8.23
2023-05-21T09:18:02.216Z,8.63
2023-05-21T09:20:29.184Z,7.72
2023-05-21T09:23:02.541Z,8.02
2023-05-21T09:25:29.502Z,8.70
2023-05-21T09:27:56.693Z,7.95
2023-05-21T09:30:26.787Z,9.35
2023-05-21T09:33:00.037Z,8.80
2023-05-21T09:35:27.283Z,9.35
2023-05-21T09:37:57.651Z,8.80
2023-05-21T09:40:24.651Z,10.02
2023-05-21T09:42:53.315Z,8.70
2023-05-21T09:45:27.698Z,8.85
2023-05-21T09:47:56.310Z,8.40
2023-05-21T09:50:27.958Z,9.82
2023-05-21T09:52:55.616Z,9.10
2023-05-21T09:55:26.509Z,11.05
2023-05-21T09:57:55.837Z,10.35
2023-05-21T10:00:28.040Z,8.18
2023-05-21T10:02:56.423Z,8.10
2023-05-21T10:05:28.744Z,8.77
2023-05-21T10:08:04.425Z,8.40
2023-05-21T10:10:32.440Z,8.50
2023-05-21T10:13:09.044Z,10.23
2023-05-21T10:15:42.406Z,10.00
2023-05-21T10:18:10.430Z,8.50
2023-05-21T10:20:38.354Z,9.77
2023-05-21T10:23:06.023Z,9.73
2023-05-21T10:25:32.837Z,10.60
2023-05-21T10:27:59.565Z,9.65
2023-05-21T10:30:26.473Z,8.80
2023-05-21T10:32:55.918Z,10.05
2023-05-21T10:37:51.384Z,9.20
2023-05-21T10:40:21.337Z,8.60
2023-05-21T10:43:20.277Z,9.57
2023-05-21T10:46:21.470Z,9.40
2023-05-21T10:49:00.534Z,8.32
2023-05-21T10:52:08.336Z,8.40
2023-05-21T10:57:31.632Z,8.35
2023-05-21T10:59:58.950Z,8.27
2023-05-21T11:02:29.640Z,7.65
2023-05-21T11:05:00.784Z,7.80
2023-05-21T11:07:49.099Z,8.40
2023-05-21T11:10:39.367Z,7.72
2023-05-21T11:13:15.167Z,7.47
2023-05-21T11:16:01.449Z,7.60
2023-05-21T11:18:33.785Z,8.48
2023-05-21T11:21:10.115Z,8.10
2023-05-21T11:23:52.277Z,7.90
2023-05-21T11:26:23.223Z,6.45
2023-05-21T11:29:05.151Z,8.27
2023-05-21T11:31:38.312Z,8.73
2023-05-21T11:34:14.423Z,7.93
2023-05-21T11:36:46.437Z,8.02
2023-05-21T11:39:21.948Z,7.85
2023-05-21T11:42:04.875Z,7.65
2023-05-21T11:44:42.009Z,8.05
2023-05-21T11:47:19.055Z,7.88
2023-05-21T11:49:46.883Z,8.85
2023-05-21T11:52:15.287Z,8.30
2023-05-21T11:55:03.735Z,8.02
2023-05-21T11:57:33.364Z,8.82
2023-05-21T12:00:01.695Z,8.38
2023-05-21T12:02:33.363Z,8.82
2023-05-21T12:05:00.821Z,8.77
2023-05-21T12:07:29.917Z,8.15
2023-05-21T12:09:59.528Z,8.90
2023-05-21T12:12:38.838Z,8.35
2023-05-21T12:15:13.644Z,8.98
2023-05-21T12:17:41.697Z,7.78
2023-05-21T12:20:10.654Z,8.32
2023-05-21T12:22:42.438Z,8.63
2023-05-21T12:25:12.122Z,8.75
2023-05-21T12:27:39.294Z,9.05
2023-05-21T12:30:06.842Z,9.18
2023-05-21T12:32:33.623Z,7.97
2023-05-21T12:35:00.495Z,8.93
2023-05-21T12:37:32.515Z,7.50
2023-05-21T12:40:01.251Z,8.38
2023-05-21T12:42:35.602Z,8.15
2023-05-21T12:45:09.986Z,8.68
2023-05-21T12:47:37.229Z,8.60
2023-05-21T12:50:08.267Z,7.78
2023-05-21T12:52:35.121Z,9.45
2023-05-21T12:55:02.120Z,8.43
2023-05-21T12:57:36.272Z,8.20
2023-05-21T13:00:06.494Z,7.90
2023-05-21T13:02:35.534Z,7.82
2023-05-21T13:05:05.220Z,7.45
2023-05-21T13:07:37.686Z,7.78
2023-05-21T13:10:05.647Z,8.05
2023-05-21T13:12:33.959Z,7.68
2023-05-21T13:15:04.826Z,8.65
2023-05-21T13:17:36.159Z,8.35
2023-05-21T13:20:09.132Z,8.10
2023-05-21T13:22:43.550Z,7.55
2023-05-21T13:25:15.680Z,8.30
2023-05-21T13:27:43.533Z,7.18
2023-05-21T13:30:13.102Z,8.32
2023-05-21T13:32:40.997Z,8.52
2023-05-21T13:35:11.333Z,8.77
2023-05-21T13:37:40.030Z,8.35
2023-05-21T13:40:10.890Z,8.48
2023-05-21T13:42:38.538Z,8.32
2023-05-21T13:45:06.716Z,7.85
2023-05-21T13:47:34.063Z,7.68
2023-05-21T13:50:01.167Z,7.72
2023-05-21T13:52:27.982Z,8.45
2023-05-21T13:54:54.732Z,7.93
2023-05-21T13:57:21.556Z,7.82
2023-05-21T13:59:50.594Z,8.00
2023-05-21T14:02:19.600Z,8.38
2023-05-21T14:04:48.742Z,9.00
2023-05-21T14:07:15.914Z,8.02
2023-05-21T14:09:42.695Z,8.60
2023-05-21T14:12:09.918Z,7.93
2023-05-21T14:14:39.049Z,7.95
2023-05-21T14:17:06.443Z,8.25
2023-05-21T14:19:33.320Z,8.30
2023-05-21T14:22:00.298Z,9.10
2023-05-21T14:24:27.077Z,8.18
2023-05-21T14:26:56.274Z,7.93
2023-05-21T14:31:49.877Z,7.78
2023-05-21T14:34:18.865Z,7.50
2023-05-21T14:36:50.629Z,8.13
2023-05-21T14:39:17.417Z,8.25
2023-05-21T14:41:44.269Z,7.68
2023-05-21T14:44:11.048Z,8.35
2023-05-21T14:46:39.051Z,8.35
2023-05-21T14:49:06.050Z,8.10
2023-05-21T14:51:32.811Z,8.45
2023-05-21T14:53:59.580Z,8.90
2023-05-21T14:56:29.644Z,7.90
2023-05-21T14:58:56.462Z,7.97
2023-05-21T15:01:23.744Z,8.27
2023-05-21T15:03:50.737Z,8.05
2023-05-21T15:06:17.619Z,8.18
2023-05-21T15:08:44.335Z,8.30
2023-05-21T15:11:11.510Z,8.27
2023-05-21T15:13:42.779Z,9.00
2023-05-21T15:16:09.629Z,8.40
2023-05-21T15:18:36.403Z,7.93
2023-05-21T15:21:03.220Z,7.90
2023-05-21T15:23:30.042Z,8.73
2023-05-21T15:25:56.799Z,8.23
2023-05-21T15:28:25.762Z,8.18
2023-05-21T15:30:52.469Z,8.10
2023-05-21T15:33:21.520Z,8.93
2023-05-21T15:35:48.465Z,8.48
2023-05-21T15:38:17.739Z,8.73
2023-05-21T15:40:44.625Z,8.95
2023-05-21T15:43:14.294Z,7.65
2023-05-21T15:45:41.962Z,7.68
2023-05-21T15:48:09.290Z,7.90
2023-05-21T15:50:37.653Z,8.82
2023-05-21T15:53:07.312Z,8.80
2023-05-21T15:55:34.864Z,8.35
2023-05-21T15:58:03.907Z,8.50
2023-05-21T16:00:31.109Z,8.25
2023-05-21T16:02:58.351Z,8.45
2023-05-21T16:05:26.282Z,7.75
2023-05-21T16:07:53.466Z,8.05
2023-05-21T16:10:20.655Z,8.82
2023-05-21T16:12:50.218Z,8.95
2023-05-21T16:15:17.412Z,8.68
2023-05-21T16:17:44.608Z,7.75
2023-05-21T16:20:12.065Z,8.38
2023-05-21T16:22:40.223Z,8.38
2023-05-21T16:25:07.679Z,8.35
2023-05-21T16:27:36.223Z,8.55
2023-05-21T16:30:04.086Z,9.52
2023-05-21T16:32:31.393Z,8.90
2023-05-21T16:34:58.589Z,9.32
2023-05-21T16:37:25.747Z,8.88
2023-05-21T16:39:55.681Z,9.48
2023-05-21T16:42:22.955Z,8.80
2023-05-21T16:44:50.118Z,8.15
2023-05-21T16:47:17.398Z,6.28
2023-05-21T16:49:44.492Z,6.20
2023-05-21T16:52:11.627Z,5.72
2023-05-21T16:54:38.797Z,5.78
2023-05-21T16:57:05.969Z,6.07
2023-05-21T16:59:33.105Z,4.95
2023-05-21T17:02:00.464Z,5.40
2023-05-21T17:04:28.063Z,5.88
2023-05-21T17:06:55.260Z,6.45
2023-05-21T17:09:22.483Z,6.07
2023-05-21T17:11:49.683Z,6.28
2023-05-21T17:14:27.010Z,6.60
2023-05-21T17:17:00.857Z,6.30
2023-05-21T17:19:28.305Z,6.85
2023-05-21T17:21:58.232Z,6.43
2023-05-21T17:24:27.861Z,7.32
2023-05-21T17:26:55.129Z,7.70
2023-05-21T17:29:22.288Z,7.60
2023-05-21T17:31:49.471Z,6.60
2023-05-21T17:34:17.964Z,6.38
2023-05-21T17:36:45.272Z,6.10
2023-05-21T17:39:12.422Z,6.25
2023-05-21T17:41:39.961Z,6.25
2023-05-21T17:44:07.068Z,6.22
2023-05-21T17:46:34.312Z,7.57
2023-05-21T17:49:01.475Z,6.70
2023-05-21T17:51:31.503Z,7.13
2023-05-21T17:53:58.676Z,6.93
2023-05-21T17:56:26.666Z,6.40
2023-05-21T17:58:58.359Z,7.57
2023-05-21T18:01:25.567Z,6.85
2023-05-21T18:03:52.746Z,6.10
2023-05-21T18:06:19.905Z,5.95
2023-05-21T18:08:47.034Z,6.22
2023-05-21T18:11:14.207Z,6.60
2023-05-21T18:13:41.388Z,7.13
2023-05-21T18:16:08.561Z,6.20
2023-05-21T18:18:38.261Z,6.82
2023-05-21T18:21:05.542Z,6.93
2023-05-21T18:23:35.025Z,6.90
2023-05-21T18:26:02.149Z,7.47
2023-05-21T18:28:34.327Z,7.57
2023-05-21T18:31:02.651Z,8.32
2023-05-21T18:33:29.848Z,7.50
2023-05-21T18:35:56.987Z,7.80
2023-05-21T18:38:24.452Z,6.65
2023-05-21T18:40:51.886Z,7.63
2023-05-21T18:43:19.048Z,13.52
2023-05-21T18:45:48.720Z,7.97
2023-05-21T18:48:16.190Z,7.45
2023-05-21T18:50:43.361Z,6.70
2023-05-21T18:53:11.034Z,7.30
2023-05-21T18:55:40.486Z,7.55
2023-05-21T19:00:35.019Z,6.68
2023-05-21T19:03:04.743Z,7.05
2023-05-21T19:05:32.000Z,7.45
2023-05-21T19:07:59.572Z,6.68
2023-05-21T19:10:26.990Z,7.13
2023-05-21T19:12:54.512Z,6.63
2023-05-21T19:15:21.715Z,7.00
2023-05-21T19:17:49.147Z,6.72
2023-05-21T19:20:27.169Z,6.90
2023-05-21T19:22:58.388Z,7.73
2023-05-21T19:25:25.759Z,7.07
2023-05-21T19:27:56.519Z,7.00
2023-05-21T19:30:24.096Z,7.68
2023-05-21T19:32:51.458Z,7.88
2023-05-21T19:35:18.718Z,7.53
2023-05-21T19:37:45.955Z,7.90
2023-05-21T19:40:16.225Z,8.30
2023-05-21T19:42:43.513Z,8.32
2023-05-21T19:45:14.129Z,8.48
2023-05-21T19:47:41.572Z,8.55
2023-05-21T19:50:11.845Z,9.00
2023-05-21T19:52:57.366Z,8.68
2023-05-21T19:55:28.420Z,8.93
2023-05-21T19:57:55.661Z,9.80
2023-05-21T20:00:23.090Z,10.23
2023-05-21T20:02:55.304Z,9.40
2023-05-21T20:05:22.640Z,9.45
2023-05-21T20:07:49.992Z,9.18
2023-05-21T20:10:17.317Z,9.05
2023-05-21T20:12:47.008Z,9.50
2023-05-21T20:15:14.542Z,10.73
2023-05-21T20:17:44.154Z,9.50
2023-05-21T20:20:12.698Z,9.82
2023-05-21T20:22:42.795Z,10.43
2023-05-21T20:25:10.613Z,10.35
2023-05-21T20:27:41.446Z,10.40
2023-05-21T20:30:09.138Z,10.55
2023-05-21T20:32:36.793Z,9.35
2023-05-21T20:35:04.188Z,10.50
2023-05-21T20:37:32.873Z,10.38
2023-05-21T20:40:00.167Z,10.43
2023-05-21T20:42:28.681Z,10.73
2023-05-21T20:44:58.822Z,9.43
2023-05-21T20:47:29.877Z,9.82
2023-05-21T20:49:59.807Z,10.40
2023-05-21T20:52:27.209Z,10.65
2023-05-21T20:54:59.636Z,9.43
2023-05-21T20:57:27.391Z,10.70
2023-05-21T20:59:54.585Z,10.50
2023-05-21T21:02:24.517Z,10.88
2023-05-21T21:04:53.752Z,10.52
2023-05-21T21:07:23.411Z,10.45
2023-05-21T21:09:53.032Z,11.07
2023-05-21T21:12:25.174Z,10.57
2023-05-21T21:14:56.426Z,10.25
2023-05-21T21:17:23.787Z,10.38
2023-05-21T21:19:50.967Z,10.15
2023-05-21T21:22:18.569Z,10.85
2023-05-21T21:24:46.010Z,11.07
2023-05-21T21:27:13.325Z,10.35
2023-05-21T21:29:42.736Z,10.20
2023-05-21T21:32:09.930Z,10.35
2023-05-21T21:34:39.284Z,10.55
2023-05-21T21:37:06.549Z,10.73
2023-05-21T21:39:33.688Z,10.30
2023-05-21T21:42:01.049Z,10.48
2023-05-21T21:44:28.209Z,10.27
2023-05-21T21:46:55.367Z,10.32
2023-05-21T21:49:24.758Z,10.75
2023-05-21T21:51:57.528Z,10.13
2023-05-21T21:54:25.137Z,10.93
2023-05-21T21:56:52.240Z,10.55
2023-05-21T21:59:20.557Z,11.05
2023-05-21T22:01:47.925Z,10.93
2023-05-21T22:04:15.151Z,10.77
2023-05-21T22:06:45.220Z,10.82
2023-05-21T22:09:12.790Z,11.65
2023-05-21T22:11:40.149Z,11.38
2023-05-21T22:14:07.849Z,11.55
2023-05-21T22:16:35.015Z,11.57
2023-05-21T22:19:02.363Z,10.90
2023-05-21T22:21:32.749Z,10.50
2023-05-21T22:24:00.525Z,11.98
2023-05-21T22:26:27.676Z,11.93
2023-05-21T22:28:54.837Z,12.05
2023-05-21T22:31:22.190Z,11.98
2023-05-21T22:33:51.816Z,10.77
2023-05-21T22:38:51.042Z,11.80
2023-05-21T22:41:18.212Z,11.73
2023-05-21T22:43:47.640Z,11.43
2023-05-21T22:46:14.847Z,12.40
2023-05-21T22:48:42.485Z,11.60
2023-05-21T22:51:11.223Z,12.52
2023-05-21T22:53:38.851Z,11.33
2023-05-21T22:56:08.581Z,12.23
2023-05-21T22:58:38.227Z,11.98
2023-05-21T23:03:32.417Z,11.82
2023-05-21T23:05:59.560Z,11.13
2023-05-21T23:08:26.936Z,12.85
2023-05-21T23:10:54.076Z,12.30
2023-05-21T23:13:21.456Z,11.07
2023-05-21T23:15:48.884Z,11.77
2023-05-21T23:18:18.602Z,12.40
2023-05-21T23:20:45.788Z,12.27
2023-05-21T23:23:12.970Z,11.88
2023-05-21T23:25:40.072Z,11.93
2023-05-21T23:28:09.713Z,11.95
2023-05-21T23:33:06.590Z,12.57
2023-05-21T23:35:33.774Z,12.38
2023-05-21T23:38:03.571Z,11.25
2023-05-21T23:40:33.209Z,11.77
2023-05-21T23:45:27.654Z,11.57
2023-05-21T23:47:54.816Z,11.80
2023-05-21T23:50:22.072Z,11.52
2023-05-21T23:52:49.242Z,12.60
2023-05-21T23:55:16.542Z,11.27
2023-05-21T23:57:43.808Z,12.35
